logo
Search for airport 
image banner adimage banner adimage banner ad
image banner ad

FALW - Langebaanweg (Mil - Unlicensed)

Located in Langebaanweg, South Africa

ICAO - FALW, IATA - SDB

Data provided by Airmate  

General information

Coordinates: S32°58'8" E18°9'55"
Elevation is 108 feet MSL.
Magnetic variation is -25° East
View others Airports in Western Cape

Operational data

Special qualification required
Current time UTC:
Current local time:
Weather
METAR: FALW 180900Z AUTO 11001KT //// // ////// 15/15 Q1019
View NOTAMs / SUP AIP / TFR affecting this airport [VIEW]
Communications frequencies: [VIEW]

Runways:

RWY identifierQFULength (ft)Width (ft)SurfaceLDA (ft)
02L7680151ASPH7680
20R181°7680151ASPH7680
02R7690151ASPH7690
20L181°7690151ASPH7690
16136°5830144ASPH5830
34316°5830144ASPH5830
0747°4934151ASPH4934
25227°4934151ASPH4934

Airport contact information

Address: Langebaanweg South Africa

Satellite view of FALW